Skip Navigation Links
NOAA logo - Click to go to the NOAA homepage
NOAA's National Weather Service
Alaska Aviation Weather Unit
  NWS logo - Click to go to the NWS homepage
Left Navbar Graphic     17 AKDT = 01 GMT

   
NOAA is celebrating 200 years of science, service, and stewardship. Visit the NOAA 200th celebration Web site to learn more.
USA.gov is the U.S. Government's official Web portal to all Federal, state and local government Web resources and services.
Facebook
NWS on Facebook

Important Change Regarding the AAWU Web Presence

 

Over the last several months, the AAWU has been working to navigate its webpages to a nationally supported server. Security, as well as other needs, have necessitated the change.  We have been given an extension for the site changeover while we diligently work at addressing feedback received. As of July 14, 2017, aawu.arh.noaa.gov will be discontinued. The new AAWU web address is weather.gov/aawu. It is now live and will run in-parallel with the old site until it is discontinued on July 14, 2017. Please continue to send any feedback or questions regarding the new webpages to nws.ar.aawu.webauthors@noaa.gov.  Thank you for your patience during this time of transition.
AAWU Home :: Display TAF Add Bookmark
TAF PAGK 172327Z 1800/1824  34003KT P6SM -SHSN BKN040 OVC100
      TEMPO 1800/1802 2SM -SHSN BR OVC022
     FM181200 34002KT P6SM VCFG SCT040
     FM181900 35003KT P6SM BKN050=

1423
FTAK31 PANC 172327
TAFADQ
TAF
METAR PAGK 171953Z AUTO 36004KT 9SM -SN FEW021 BKN046 OVC060 M06/M08
     A2944 RMK AO2 SNB51 SLP008 P0000 T10561078 TSNO $=

SPECI PAGK 172011Z AUTO 34003KT 10SM BKN021 OVC035 M04/M07 A2944 RMK AO2
     SNE02 P0000 T10441067 TSNO $=

PAGK 172042Z AUTO 01006KT FEW020 BKN055 OVC070 M03/M06 A2943 RMK
     AO2 SNE02 P0000 T10331056 TSNO $=

METAR PAGK 172053Z AUTO 36005KT 10SM FEW020 BKN041 OVC060 M03/M06 A2943
     RMK AO2 SNE02 SLP000 P0000 60000 T10331061 58011 TSNO $=

SPECI PAGK 172148Z AUTO VRB04KT 7SM -SN BKN022 OVC032 M03/M06 A2942 RMK
     AO2 SNB47 P0000 TSNO $=

METAR PAGK 172153Z AUTO 36004KT 5SM -SN BKN022 BKN030 OVC037 M02/M05
     A2942 RMK AO2 SNB47 SLP997 P0000 T10221050 TSNO $=

PAGK 172202Z AUTO 02005KT 3SM -SN SCT022 BKN034 OVC042 M02/M05
     A2942 RMK AO2 P0000 T10221050 TSNO $=

SPECI PAGK 172212Z AUTO 02004KT 2SM -SN FEW020 BKN030 OVC039 M02/M05
     A2941 RMK AO2 P0000 T10221050 TSNO $=

SPECI PAGK 172218Z AUTO 01005KT 1 3/4SM -SN FEW020 BKN028 OVC039 M02/M05
     A2941 RMK AO2 P0000 T10221050 TSNO $=

METAR PAGK 172253Z AUTO 01008KT 1 1/4SM -SN BR BKN022 OVC035 M03/M04
     A2939 RMK AO2 SLP991 P0001 T10281044 TSNO=

SPECI PAGK 172312Z AUTO 02006KT 2 1/2SM -SN BR BKN035 OVC049 M03/M04
     A2939 RMK AO2 P0000 T10281044 TSNO=

SPECI PAGK 172319Z AUTO 02006KT 3SM -SN BR BKN039 BKN049 OVC060 M03/M04
     A2939 RMK AO2 P0000 T10281044 TSNO=

METAR PAGK 172353Z AUTO 02005KT 9SM -SN BKN047 OVC055 M02/M04 A2938 RMK
     AO2 SLP984 P0000 60001 T10221044 11022 21072 58013 TSNO=

METAR PAGK 180053Z AUTO 03004KT 3SM -SN OVC028 M02/M05 A2936 RMK AO2
 SLP976 P0000 T10221050 TSNO=

SPECI PAGK 180059Z AUTO 03006KT 1 3/4SM -SN BR OVC026 M03/M05 A2936
 RMK AO2 P0000 T10281050 TSNO=

SPECI PAGK 180123Z AUTO 02007KT 1/2SM SN FZFG VV018 M03/M04 A2936 RMK
     AO2 P0001 T10281044 TSNO=


NOAA's National Weather Service
Alaska Aviation Weather Unit
6930 Sand Lake Road
Anchorage, AK 99502-1845
Disclaimer
Credits
Glossary
Privacy Policy
About Us
Career Opportunities
Contact AAWU Internet Services Site last modified: April, 17th 2012